Time;durP1;ratioP1;P1;durP2;ratioP2;P2;SDS_P1;SDS_P2;PMS_P1;PMS_P2;Temp;Humidity;BMP_temperature;BMP_pressure;BME280_temperature;BME280_humidity;BME280_pressure;Samples;Min_cycle;Max_cycle;Signal;HPM_P1;HPM_P2
2023/03/01 00:01:04;;;;;;;16.30;13.23;;;;;;;-3.32;100.00;102968.41;4989072;28;20303;-87
2023/03/01 00:03:30;;;;;;;16.43;13.30;;;;;;;-3.21;100.00;102968.78;4985832;28;20038;-88
2023/03/01 00:05:55;;;;;;;16.50;13.30;;;;;;;-3.35;100.00;102965.91;4965126;28;20316;-80
2023/03/01 00:08:20;;;;;;;17.07;13.73;;;;;;;-3.27;100.00;102963.78;4982353;28;20050;-80
2023/03/01 00:10:45;;;;;;;16.27;13.10;;;;;;;-3.26;100.00;102971.66;4964380;28;20045;-80
2023/03/01 00:13:11;;;;;;;15.10;12.77;;;;;;;-3.43;100.00;102961.81;4964564;28;20119;-80
2023/03/01 00:15:41;;;;;;;17.67;13.67;;;;;;;-3.45;100.00;102965.47;4965147;28;20058;-88
2023/03/01 00:18:07;;;;;;;17.40;13.57;;;;;;;-3.45;100.00;102961.00;4983269;28;20037;-88
2023/03/01 00:20:32;;;;;;;15.07;6.67;;;;;;;-3.35;100.00;102958.81;4981832;28;20294;-87
2023/03/01 00:22:57;;;;;;;17.93;13.37;;;;;;;-3.52;100.00;102967.53;4985340;28;20719;-87
2023/03/01 00:25:23;;;;;;;17.60;14.17;;;;;;;-3.53;100.00;102964.94;4966560;28;20862;-88
2023/03/01 00:27:49;;;;;;;15.80;13.30;;;;;;;-3.50;100.00;102973.59;4982653;28;20049;-88
2023/03/01 00:30:14;;;;;;;17.23;13.53;;;;;;;-3.44;100.00;102969.81;4982929;28;20129;-88
2023/03/01 00:32:40;;;;;;;15.57;13.27;;;;;;;-3.56;100.00;102971.25;4969347;28;20109;-88
2023/03/01 00:35:05;;;;;;;13.53;7.00;;;;;;;-3.43;100.00;102966.25;4987558;28;20042;-88
2023/03/01 00:37:31;;;;;;;16.53;13.17;;;;;;;-3.63;100.00;102969.75;4970242;28;20042;-88
2023/03/01 00:39:56;;;;;;;17.53;13.40;;;;;;;-3.71;100.00;102962.16;4987634;28;20039;-88
2023/03/01 00:42:22;;;;;;;15.23;12.50;;;;;;;-3.65;100.00;102967.19;4987734;28;20090;-88
2023/03/01 00:44:47;;;;;;;17.63;13.53;;;;;;;-3.60;100.00;102967.00;4969364;28;20113;-87
2023/03/01 00:47:13;;;;;;;17.37;13.63;;;;;;;-3.74;100.00;102962.28;4985008;28;20185;-87
2023/03/01 00:49:39;;;;;;;15.97;12.73;;;;;;;-3.65;100.00;102955.72;4983850;28;20065;-88
2023/03/01 00:52:04;;;;;;;13.53;6.43;;;;;;;-3.58;100.00;102951.88;4985007;28;21288;-88
2023/03/01 00:54:29;;;;;;;20.53;13.17;;;;;;;-3.79;100.00;102949.25;4982370;28;20104;-88
2023/03/01 00:56:55;;;;;;;14.63;12.80;;;;;;;-3.77;100.00;102943.88;4964039;28;20038;-88
2023/03/01 00:59:20;;;;;;;17.70;13.80;;;;;;;-3.82;100.00;102944.09;4986419;28;20077;-88
2023/03/01 01:01:46;;;;;;;15.37;13.33;;;;;;;-3.80;100.00;102938.72;4955520;28;20126;-88
2023/03/01 01:04:13;;;;;;;15.83;13.20;;;;;;;-3.87;100.00;102938.13;4972238;28;20074;-88
2023/03/01 01:06:44;;;;;;;11.50;5.93;;;;;;;-3.74;100.00;102941.97;4983968;28;20046;-87
2023/03/01 01:09:16;;;;;;;17.07;13.20;;;;;;;-3.94;100.00;102937.50;4986364;28;20282;-88
2023/03/01 01:11:44;;;;;;;17.10;13.43;;;;;;;-3.97;100.00;102948.25;4983914;28;20289;-87
2023/03/01 01:14:09;;;;;;;15.07;13.13;;;;;;;-3.95;100.00;102941.09;4982513;28;20713;-88
2023/03/01 01:16:35;;;;;;;13.43;6.83;;;;;;;-3.81;100.00;102937.84;4966375;28;20388;-88
2023/03/01 01:19:00;;;;;;;16.67;13.00;;;;;;;-3.72;100.00;102936.59;4985064;28;20379;-80
2023/03/01 01:21:27;;;;;;;12.03;6.60;;;;;;;-3.79;100.00;102927.19;4980381;28;20139;-80
2023/03/01 01:23:53;;;;;;;17.67;12.70;;;;;;;-3.96;100.00;102927.91;4981450;28;20475;-80
2023/03/01 01:26:29;;;;;;;10.97;5.87;;;;;;;-3.83;100.00;102918.50;4962741;28;20820;-80
2023/03/01 01:28:55;;;;;;;18.07;13.43;;;;;;;-3.97;100.00;102916.47;4980650;28;20684;-80
2023/03/01 01:31:23;;;;;;;16.60;13.20;;;;;;;-3.95;100.00;102911.94;4950527;28;20290;-80
2023/03/01 01:33:49;;;;;;;17.13;13.50;;;;;;;-4.00;100.00;102907.78;4963800;28;20292;-80
2023/03/01 01:36:14;;;;;;;11.43;6.00;;;;;;;-3.88;100.00;102909.06;4965542;28;20302;-80
2023/03/01 01:38:42;;;;;;;16.17;13.17;;;;;;;-4.05;100.00;102909.75;4963236;28;20556;-80
2023/03/01 01:41:11;;;;;;;17.60;13.70;;;;;;;-4.09;100.00;102899.31;4979551;28;20125;-87
2023/03/01 01:43:43;;;;;;;10.07;5.67;;;;;;;-3.96;100.00;102902.31;4963594;28;20297;-87
2023/03/01 01:46:20;;;;;;;15.53;13.27;;;;;;;-4.10;100.00;102899.38;4980569;28;20453;-88
2023/03/01 01:48:54;;;;;;;11.37;5.70;;;;;;;-4.01;100.00;102893.69;4982707;28;20701;-88
2023/03/01 01:51:27;;;;;;;16.25;13.27;;;;;;;-4.22;100.00;102884.88;4983235;28;20314;-88
2023/03/01 01:54:00;;;;;;;17.27;13.53;;;;;;;-4.15;100.00;102890.75;4980617;28;21029;-87
2023/03/01 01:56:27;;;;;;;16.13;12.80;;;;;;;-4.27;100.00;102886.84;4979677;28;20326;-88
2023/03/01 01:58:53;;;;;;;17.23;12.97;;;;;;;-4.25;100.00;102883.22;4978225;28;20297;-88
2023/03/01 02:01:19;;;;;;;16.17;13.07;;;;;;;-4.33;100.00;102882.66;4980004;28;20424;-80
2023/03/01 02:03:47;;;;;;;15.23;12.57;;;;;;;-4.35;100.00;102879.25;4963291;28;20359;-80
2023/03/01 02:06:32;;;;;;;16.03;12.50;;;;;;;-4.17;100.00;102876.75;4980523;28;20350;-80
2023/03/01 02:09:04;;;;;;;16.00;12.90;;;;;;;-4.21;100.00;102883.94;4983142;28;20293;-80
2023/03/01 02:11:32;;;;;;;16.03;12.70;;;;;;;-4.20;100.00;102875.09;4968041;28;20483;-87
2023/03/01 02:13:58;;;;;;;20.33;13.30;;;;;;;-4.26;100.00;102870.94;4982245;28;20815;-80
2023/03/01 02:16:24;;;;;;;17.47;12.90;;;;;;;-4.29;100.00;102875.47;4978411;28;20293;-80
2023/03/01 02:18:50;;;;;;;15.37;12.57;;;;;;;-4.36;100.00;102871.38;4981725;28;20034;-80
2023/03/01 02:21:49;;;;;;;10.20;5.70;;;;;;;-4.18;100.00;102872.38;4980915;28;20300;-81
2023/03/01 02:24:42;;;;;;;15.40;6.10;;;;;;;-4.14;100.00;102873.97;4981294;28;20049;-80
2023/03/01 02:27:09;;;;;;;10.87;6.10;;;;;;;-4.09;100.00;102872.84;4982852;28;20300;-80
2023/03/01 02:29:35;;;;;;;10.43;5.87;;;;;;;-4.02;100.00;102872.59;4981496;28;20789;-80
2023/03/01 02:32:03;;;;;;;13.30;10.73;;;;;;;-3.82;100.00;102869.03;4982106;28;20297;-80
2023/03/01 02:34:31;;;;;;;10.87;5.37;;;;;;;-3.90;100.00;102867.59;4963571;28;20378;-80
2023/03/01 02:37:06;;;;;;;12.77;5.77;;;;;;;-3.85;100.00;102869.19;4981081;28;20293;-80
2023/03/01 02:39:48;;;;;;;13.67;10.23;;;;;;;-3.80;100.00;102868.03;4981547;28;20801;-80
2023/03/01 02:42:20;;;;;;;12.87;10.17;;;;;;;-3.71;100.00;102868.56;4979956;28;20353;-80
2023/03/01 02:44:45;;;;;;;8.87;5.23;;;;;;;-3.71;100.00;102872.09;4977773;28;20298;-80
2023/03/01 02:47:10;;;;;;;12.60;10.17;;;;;;;-3.64;100.00;102864.72;4979614;28;20441;-81
2023/03/01 02:49:36;;;;;;;11.00;5.33;;;;;;;-3.64;100.00;102870.03;4963427;28;20046;-81
2023/03/01 02:52:28;;;;;;;9.07;5.20;;;;;;;-3.65;100.00;102866.50;4981974;28;20046;-81
2023/03/01 02:55:08;;;;;;;12.30;9.77;;;;;;;-3.65;100.00;102866.50;4979656;28;20034;-80
2023/03/01 02:57:35;;;;;;;12.17;9.53;;;;;;;-3.56;100.00;102871.38;4982055;28;20308;-80
2023/03/01 03:00:19;;;;;;;9.43;4.97;;;;;;;-3.62;100.00;102866.38;4979451;28;20296;-80
2023/03/01 03:02:45;;;;;;;10.90;9.00;;;;;;;-3.66;100.00;102859.47;4982842;28;20436;-80
2023/03/01 03:05:17;;;;;;;11.33;9.40;;;;;;;-3.63;100.00;102859.34;4964165;28;20313;-87
2023/03/01 03:07:45;;;;;;;13.37;9.53;;;;;;;-3.62;100.00;102868.16;4982982;28;20303;-87
2023/03/01 03:10:26;;;;;;;11.37;9.50;;;;;;;-3.58;100.00;102864.44;4978483;28;20674;-87
2023/03/01 03:12:58;;;;;;;11.67;8.80;;;;;;;-3.57;100.00;102869.66;4969524;28;20302;-87
2023/03/01 03:15:24;;;;;;;11.43;9.57;;;;;;;-3.57;100.00;102866.16;4981147;28;20289;-87
2023/03/01 03:17:51;;;;;;;12.37;9.27;;;;;;;-3.61;100.00;102865.44;4987184;28;20297;-88
2023/03/01 03:20:19;;;;;;;11.97;9.20;;;;;;;-3.53;100.00;102869.53;4988762;28;20308;-87
2023/03/01 03:22:47;;;;;;;12.67;9.30;;;;;;;-3.52;100.00;102863.28;4988630;28;21267;-87
2023/03/01 03:25:12;;;;;;;8.50;4.27;;;;;;;-3.53;100.00;102866.91;4986971;28;20308;-87
2023/03/01 03:27:40;;;;;;;10.43;8.90;;;;;;;-3.62;99.85;102866.38;4987572;28;20297;-88
2023/03/01 03:30:08;;;;;;;11.13;8.90;;;;;;;-3.65;99.72;102858.53;4985341;28;20119;-87
2023/03/01 03:32:38;;;;;;;9.00;4.50;;;;;;;-3.60;99.54;102856.56;4971255;28;20289;-88
2023/03/01 03:35:11;;;;;;;10.03;9.00;;;;;;;-3.66;99.87;102859.47;4990154;28;20309;-87
2023/03/01 03:40:25;;;;;;;12.50;8.83;;;;;;;-3.62;99.85;102858.44;4990582;28;20471;-88
2023/03/01 03:42:51;;;;;;;10.80;8.40;;;;;;;-3.71;100.00;102855.31;4990168;28;20309;-88
2023/03/01 03:45:17;;;;;;;10.07;8.23;;;;;;;-3.71;100.00;102858.84;4985332;28;20289;-88
2023/03/01 03:47:43;;;;;;;9.40;8.03;;;;;;;-3.68;100.00;102861.34;4966947;28;20148;-86
2023/03/01 03:50:14;;;;;;;6.83;4.40;;;;;;;-3.66;99.94;102856.81;4982996;28;20294;-88
2023/03/01 03:52:39;;;;;;;10.87;8.37;;;;;;;-3.67;99.52;102846.28;4975771;28;20297;-88
2023/03/01 03:55:09;;;;;;;11.83;8.67;;;;;;;-3.70;99.84;102852.59;4985978;28;20289;-87
2023/03/01 03:57:35;;;;;;;8.17;4.50;;;;;;;-3.68;99.64;102853.41;4984304;28;20054;-88
2023/03/01 04:00:04;;;;;;;9.53;4.60;;;;;;;-3.68;99.56;102861.34;4989082;28;20294;-89
2023/03/01 04:02:29;;;;;;;11.47;8.50;;;;;;;-3.81;99.81;102846.94;4984838;28;20038;-88
2023/03/01 04:04:55;;;;;;;12.53;9.50;;;;;;;-3.80;99.90;102841.56;4984803;28;20301;-88
2023/03/01 04:07:20;;;;;;;10.97;5.27;;;;;;;-3.74;99.59;102843.06;4972162;28;20046;-88
2023/03/01 04:09:45;;;;;;;11.63;8.97;;;;;;;-3.84;99.43;102836.47;4992729;28;20030;-88
2023/03/01 04:12:11;;;;;;;11.27;9.00;;;;;;;-3.86;99.83;102830.38;4957685;28;20548;-88
2023/03/01 04:14:36;;;;;;;13.83;9.80;;;;;;;-3.86;100.00;102835.66;4985321;28;20073;-88
2023/03/01 04:17:05;;;;;;;9.53;4.83;;;;;;;-3.81;100.00;102828.38;4988462;28;20046;-87
2023/03/01 04:19:35;;;;;;;9.23;4.73;;;;;;;-3.81;99.78;102829.22;4983735;28;20060;-88
2023/03/01 04:22:09;;;;;;;10.50;8.63;;;;;;;-3.87;100.00;102829.53;4986785;28;20293;-88
2023/03/01 04:24:35;;;;;;;12.43;9.70;;;;;;;-3.85;100.00;102826.81;4967928;28;20324;-81
2023/03/01 04:27:00;;;;;;;13.03;9.57;;;;;;;-3.86;100.00;102828.59;4983606;28;20796;-81
2023/03/01 04:29:25;;;;;;;11.43;5.03;;;;;;;-3.82;100.00;102824.00;4984541;28;20368;-81
2023/03/01 04:31:51;;;;;;;13.53;9.60;;;;;;;-3.86;100.00;102825.06;4968556;28;20437;-81
2023/03/01 04:34:16;;;;;;;8.83;4.87;;;;;;;-3.83;100.00;102812.56;4984438;28;20074;-81
2023/03/01 04:36:42;;;;;;;13.73;10.40;;;;;;;-3.95;100.00;102810.47;4984119;28;20136;-81
2023/03/01 04:39:11;;;;;;;13.33;9.87;;;;;;;-3.95;100.00;102819.25;4984574;28;20161;-81
2023/03/01 04:41:42;;;;;;;9.37;5.20;;;;;;;-3.87;100.00;102815.44;4984440;28;20050;-81
2023/03/01 04:44:09;;;;;;;9.27;5.00;;;;;;;-3.88;100.00;102808.41;4984375;28;20298;-81
2023/03/01 04:46:35;;;;;;;12.97;9.80;;;;;;;-3.93;100.00;102804.19;4980038;28;21115;-81
2023/03/01 04:49:00;;;;;;;12.73;10.00;;;;;;;-3.94;100.00;102804.25;4935389;28;20329;-81
2023/03/01 04:51:26;;;;;;;12.77;9.87;;;;;;;-4.03;100.00;102805.50;4969287;28;20293;-81
2023/03/01 04:53:51;;;;;;;9.03;4.87;;;;;;;-3.94;100.00;102807.75;4955297;28;20125;-81
2023/03/01 04:56:22;;;;;;;10.07;5.47;;;;;;;-3.94;100.00;102810.41;4939080;28;20042;-81
2023/03/01 04:58:48;;;;;;;12.60;9.90;;;;;;;-3.98;100.00;102802.66;4955655;28;20042;-81
2023/03/01 05:01:18;;;;;;;13.10;10.47;;;;;;;-4.10;100.00;102796.97;4969124;28;20316;-81
2023/03/01 05:03:45;;;;;;;12.70;10.27;;;;;;;-4.05;100.00;102796.78;4970391;28;21638;-81
2023/03/01 05:06:11;;;;;;;12.47;10.17;;;;;;;-4.07;100.00;102799.50;4969749;28;20356;-81
2023/03/01 05:08:38;;;;;;;12.47;10.07;;;;;;;-4.08;100.00;102797.78;4962544;28;20294;-87
2023/03/01 05:11:04;;;;;;;14.03;10.30;;;;;;;-4.05;100.00;102799.44;4965244;28;20035;-88
2023/03/01 05:13:29;;;;;;;13.90;10.37;;;;;;;-4.12;100.00;102793.53;4977985;28;20352;-89
2023/03/01 05:15:57;;;;;;;9.57;5.03;;;;;;;-4.06;100.00;102797.69;4946351;28;20054;-88
2023/03/01 05:18:25;;;;;;;11.70;5.70;;;;;;;-4.05;100.00;102794.13;4965986;28;20134;-88
2023/03/01 05:20:56;;;;;;;12.80;10.33;;;;;;;-4.13;100.00;102789.16;4967321;28;20389;-88
2023/03/01 05:23:22;;;;;;;14.57;11.00;;;;;;;-4.04;100.00;102784.41;4969700;28;20293;-88
2023/03/01 05:25:49;;;;;;;13.70;10.33;;;;;;;-4.05;100.00;102780.91;4966128;28;22033;-81
2023/03/01 05:28:14;;;;;;;12.87;10.90;;;;;;;-4.10;100.00;102777.59;4970665;28;20385;-81
2023/03/01 05:30:41;;;;;;;9.67;5.47;;;;;;;-4.07;100.00;102774.78;4952876;28;20433;-88
2023/03/01 05:33:13;;;;;;;11.83;9.97;;;;;;;-4.14;100.00;102768.06;4971847;28;20034;-88
2023/03/01 05:35:40;;;;;;;13.93;10.67;;;;;;;-4.26;100.00;102764.16;4968767;28;20436;-88
2023/03/01 05:38:05;;;;;;;12.83;10.17;;;;;;;-4.24;100.00;102760.53;4966729;28;20294;-88
2023/03/01 05:40:33;;;;;;;13.83;5.43;;;;;;;-4.16;100.00;102759.31;4969224;28;20302;-88
2023/03/01 05:42:59;;;;;;;13.80;10.90;;;;;;;-4.28;100.00;102764.22;4967648;28;20046;-88
2023/03/01 05:45:27;;;;;;;10.27;5.00;;;;;;;-4.18;100.00;102762.03;4951406;28;20292;-88
2023/03/01 05:47:54;;;;;;;9.60;5.20;;;;;;;-4.18;100.00;102755.91;4970458;28;20043;-88
2023/03/01 05:50:22;;;;;;;10.10;5.53;;;;;;;-4.20;100.00;102758.63;4964606;28;20295;-88
2023/03/01 05:52:50;;;;;;;13.23;10.30;;;;;;;-4.30;100.00;102752.84;4969569;28;20394;-88
2023/03/01 05:55:18;;;;;;;12.63;10.90;;;;;;;-4.32;100.00;102760.00;4970644;28;20340;-81
2023/03/01 05:57:43;;;;;;;13.93;10.60;;;;;;;-4.31;100.00;102751.16;4969494;28;21673;-81
2023/03/01 06:00:10;;;;;;;17.17;10.93;;;;;;;-4.28;100.00;102758.09;4969703;28;20309;-81
2023/03/01 06:02:35;;;;;;;13.97;10.93;;;;;;;-4.22;100.00;102757.81;4929626;28;20074;-81
2023/03/01 06:05:01;;;;;;;14.10;10.77;;;;;;;-4.33;100.00;102765.38;4967868;28;20332;-81
2023/03/01 06:07:26;;;;;;;11.73;5.53;;;;;;;-4.28;100.00;102772.19;4968041;28;20074;-81
2023/03/01 06:09:51;;;;;;;14.70;11.60;;;;;;;-4.33;100.00;102768.88;4971132;28;20043;-81
2023/03/01 06:12:17;;;;;;;14.37;11.57;;;;;;;-4.38;100.00;102770.84;4969088;28;20108;-81
2023/03/01 06:14:42;;;;;;;14.67;11.37;;;;;;;-4.43;100.00;102757.81;4950657;28;20129;-81
2023/03/01 06:17:08;;;;;;;8.93;4.90;;;;;;;-4.36;100.00;102754.94;4951017;28;20074;-81
2023/03/01 06:19:33;;;;;;;15.30;11.47;;;;;;;-4.39;100.00;102757.69;4953486;28;20047;-88
2023/03/01 06:21:58;;;;;;;10.07;5.67;;;;;;;-4.37;100.00;102761.13;4947300;28;20126;-81
2023/03/01 06:24:24;;;;;;;15.70;11.77;;;;;;;-4.43;100.00;102749.88;4957263;28;20057;-81
2023/03/01 06:26:49;;;;;;;9.93;5.43;;;;;;;-4.37;100.00;102759.34;4964500;28;20026;-81
2023/03/01 06:29:14;;;;;;;11.00;5.70;;;;;;;-4.37;100.00;102758.50;4964859;28;20514;-81
2023/03/01 06:31:40;;;;;;;14.33;11.23;;;;;;;-4.35;100.00;102759.28;4966692;28;20133;-81
2023/03/01 06:34:05;;;;;;;12.17;6.03;;;;;;;-4.33;100.00;102760.06;4947487;28;20054;-81
2023/03/01 06:36:31;;;;;;;11.10;5.90;;;;;;;-4.33;100.00;102763.56;4968549;28;20123;-81
2023/03/01 06:38:56;;;;;;;15.83;11.60;;;;;;;-4.30;100.00;102758.13;4953532;28;20046;-81
2023/03/01 06:41:21;;;;;;;15.50;11.83;;;;;;;-4.22;100.00;102759.59;4961797;28;20174;-81
2023/03/01 06:43:47;;;;;;;10.50;5.90;;;;;;;-4.24;100.00;102768.47;4946238;28;20080;-81
2023/03/01 06:46:12;;;;;;;15.10;11.40;;;;;;;-4.19;100.00;102765.59;4966512;28;20476;-81
2023/03/01 06:48:38;;;;;;;10.20;5.60;;;;;;;-4.18;100.00;102763.84;4969046;28;20977;-81
2023/03/01 06:51:03;;;;;;;14.60;11.40;;;;;;;-4.07;100.00;102769.50;4968000;28;20150;-81
2023/03/01 06:53:29;;;;;;;13.13;11.33;;;;;;;-4.08;100.00;102767.78;4938616;28;20037;-81
2023/03/01 06:55:59;;;;;;;15.90;11.10;;;;;;;-4.06;100.00;102768.56;4966980;28;20534;-81
2023/03/01 06:58:25;;;;;;;10.87;5.50;;;;;;;-4.01;100.00;102773.66;4969632;28;20285;-81
2023/03/01 07:00:50;;;;;;;14.70;11.53;;;;;;;-3.95;100.00;102758.34;4965934;28;20671;-81
2023/03/01 07:03:16;;;;;;;15.23;11.50;;;;;;;-3.87;100.00;102759.81;4933226;28;20047;-81
2023/03/01 07:05:41;;;;;;;15.23;11.60;;;;;;;-3.86;100.00;102762.38;4965745;28;20054;-88
2023/03/01 07:08:07;;;;;;;15.90;11.13;;;;;;;-3.80;100.00;102755.94;4967257;28;20090;-88
2023/03/01 07:10:32;;;;;;;17.07;12.10;;;;;;;-3.69;100.00;102755.44;4952309;28;20090;-88
2023/03/01 07:12:58;;;;;;;10.97;5.63;;;;;;;-3.64;100.00;102753.44;4950767;28;20039;-88
2023/03/01 07:15:24;;;;;;;12.50;6.00;;;;;;;-3.58;100.00;102759.31;4962910;28;20133;-88
2023/03/01 07:17:50;;;;;;;11.70;5.80;;;;;;;-3.49;100.00;102759.81;4968982;28;20038;-88
2023/03/01 07:20:17;;;;;;;13.60;11.10;;;;;;;-3.42;100.00;102753.28;4961239;28;20299;-88
2023/03/01 07:22:42;;;;;;;14.53;11.20;;;;;;;-3.32;100.00;102766.94;4967584;28;20050;-88
2023/03/01 07:25:10;;;;;;;9.63;5.80;;;;;;;-3.22;100.00;102761.13;4946533;28;20282;-87
2023/03/01 07:27:35;;;;;;;15.43;11.50;;;;;;;-3.08;100.00;102764.91;4957471;28;20117;-87
2023/03/01 07:30:00;;;;;;;16.57;11.77;;;;;;;-2.99;100.00;102768.88;4963204;28;20373;-81
2023/03/01 07:32:26;;;;;;;15.07;11.60;;;;;;;-2.83;100.00;102768.97;4958865;28;20039;-81
2023/03/01 07:34:51;;;;;;;15.07;11.53;;;;;;;-2.73;100.00;102778.22;4957948;28;20039;-81
2023/03/01 07:37:17;;;;;;;13.57;6.57;;;;;;;-2.62;100.00;102780.31;4932243;28;20058;-81
2023/03/01 07:39:42;;;;;;;15.87;11.27;;;;;;;-2.46;100.00;102767.09;4961944;28;20454;-81
2023/03/01 07:42:08;;;;;;;15.10;6.10;;;;;;;-2.36;100.00;102770.16;4948673;28;20498;-81
2023/03/01 07:44:34;;;;;;;15.73;11.37;;;;;;;-2.14;100.00;102780.50;4961450;28;20038;-81
2023/03/01 07:47:00;;;;;;;15.73;12.17;;;;;;;-2.00;100.00;102780.63;4955214;28;20101;-80
2023/03/01 07:49:28;;;;;;;15.17;11.33;;;;;;;-1.84;99.58;102779.81;4957704;28;20942;-80
2023/03/01 07:51:53;;;;;;;15.20;11.20;;;;;;;-1.67;99.15;102781.53;4938857;28;20039;-81
2023/03/01 07:54:19;;;;;;;16.73;11.67;;;;;;;-1.48;98.03;102776.06;4956462;28;20709;-81
2023/03/01 07:56:44;;;;;;;16.67;11.60;;;;;;;-1.22;97.86;102778.13;4940575;28;20085;-81
2023/03/01 07:59:09;;;;;;;15.87;11.57;;;;;;;-0.92;97.11;102779.16;4923652;28;20086;-81
2023/03/01 08:01:35;;;;;;;15.03;11.10;;;;;;;-0.50;96.15;102769.56;4960199;28;20130;-81
2023/03/01 08:04:01;;;;;;;12.97;10.23;;;;;;;-0.30;93.00;102775.50;4942491;28;20513;-81
2023/03/01 08:06:27;;;;;;;13.73;10.00;;;;;;;0.16;91.69;102770.88;4940920;28;20085;-81
2023/03/01 08:08:55;;;;;;;14.63;9.67;;;;;;;0.53;89.82;102781.03;4958018;28;20297;-81
2023/03/01 08:11:21;;;;;;;13.10;9.57;;;;;;;0.97;88.79;102781.75;4941747;28;20290;-88
2023/03/01 08:13:48;;;;;;;13.43;9.70;;;;;;;1.49;86.59;102780.91;4950388;28;20290;-87
2023/03/01 08:16:15;;;;;;;12.47;9.50;;;;;;;1.60;83.84;102787.34;4965981;28;20730;-87
2023/03/01 08:18:41;;;;;;;11.37;8.50;;;;;;;2.12;82.39;102791.75;4967144;28;20419;-88
2023/03/01 08:21:12;;;;;;;10.30;8.57;;;;;;;2.33;79.71;102791.19;4969842;28;20037;-88
2023/03/01 08:23:38;;;;;;;12.70;9.00;;;;;;;2.69;79.11;102786.81;4954445;28;20074;-81
2023/03/01 08:26:09;;;;;;;18.67;8.70;;;;;;;3.01;76.95;102787.13;4955809;28;20121;-82
2023/03/01 08:28:34;;;;;;;11.50;8.57;;;;;;;3.38;75.21;102781.66;4954208;28;21355;-81
2023/03/01 08:31:00;;;;;;;11.13;8.43;;;;;;;3.67;74.81;102772.38;4954655;28;20051;-82
2023/03/01 08:33:26;;;;;;;11.40;8.47;;;;;;;3.82;73.58;102771.19;4955508;28;20057;-81
2023/03/01 08:35:52;;;;;;;10.43;8.13;;;;;;;4.18;73.05;102771.09;4955347;28;20046;-82
2023/03/01 08:38:17;;;;;;;10.00;7.57;;;;;;;4.56;70.19;102773.34;4936912;28;20049;-81
2023/03/01 08:40:43;;;;;;;9.60;7.60;;;;;;;4.70;68.16;102768.69;4955678;28;20035;-81
2023/03/01 08:43:08;;;;;;;11.47;7.60;;;;;;;4.90;68.38;102770.59;4910802;28;20047;-82
2023/03/01 08:45:33;;;;;;;10.83;7.43;;;;;;;5.30;66.29;102758.31;4942584;28;20130;-81
2023/03/01 08:47:58;;;;;;;9.90;7.80;;;;;;;5.50;66.11;102770.09;4939845;28;20059;-82
2023/03/01 08:50:24;;;;;;;10.43;7.50;;;;;;;5.64;63.96;102754.59;4955544;28;20511;-82
2023/03/01 08:52:50;;;;;;;8.80;7.30;;;;;;;5.74;61.47;102752.84;4965054;28;20383;-89
2023/03/01 08:55:16;;;;;;;9.90;7.20;;;;;;;6.02;63.00;102753.13;4968845;28;20070;-88
2023/03/01 08:57:42;;;;;;;9.40;7.57;;;;;;;6.39;60.49;102757.94;4968153;28;20034;-88
2023/03/01 09:00:08;;;;;;;9.10;7.33;;;;;;;6.47;60.08;102755.41;4964875;28;20090;-89
2023/03/01 09:02:34;;;;;;;11.87;8.03;;;;;;;6.11;59.56;102756.88;4945867;28;20049;-89
2023/03/01 09:04:59;;;;;;;11.17;7.50;;;;;;;6.49;59.30;102747.22;4970086;28;20039;-88
2023/03/01 09:07:28;;;;;;;10.97;7.50;;;;;;;6.41;57.60;102753.28;4950903;28;20435;-89
2023/03/01 09:09:53;;;;;;;9.97;7.60;;;;;;;6.32;59.09;102752.25;4970553;28;20023;-88
2023/03/01 09:12:19;;;;;;;9.83;7.00;;;;;;;6.48;58.18;102751.75;4964776;28;20050;-82
2023/03/01 09:14:45;;;;;;;9.43;7.33;;;;;;;6.79;57.89;102746.28;4955514;28;20470;-82
2023/03/01 09:17:10;;;;;;;8.23;6.50;;;;;;;6.97;55.36;102740.19;4957363;28;20042;-82
2023/03/01 09:19:36;;;;;;;10.00;6.90;;;;;;;6.74;54.46;102740.44;4957091;28;20126;-82
2023/03/01 09:22:03;;;;;;;9.13;6.80;;;;;;;6.90;54.10;102748.84;4938842;28;20055;-82
2023/03/01 09:24:28;;;;;;;8.73;6.40;;;;;;;6.80;53.72;102748.00;4955593;28;20053;-82
2023/03/01 09:26:55;;;;;;;9.00;6.67;;;;;;;7.21;56.11;102746.00;4939248;28;20051;-88
2023/03/01 09:29:21;;;;;;;8.60;6.50;;;;;;;7.27;54.38;102731.09;4952752;28;20027;-88
2023/03/01 09:31:46;;;;;;;10.17;6.80;;;;;;;7.09;53.95;102731.81;4969416;28;20045;-89
2023/03/01 09:34:13;;;;;;;10.97;7.27;;;;;;;6.83;51.96;102726.16;4973062;28;20039;-87
2023/03/01 09:36:39;;;;;;;8.03;6.63;;;;;;;7.32;54.26;102725.28;4961850;28;20046;-81
2023/03/01 09:39:05;;;;;;;9.63;6.70;;;;;;;7.54;53.78;102726.81;4956871;28;20117;-82
2023/03/01 09:41:34;;;;;;;9.83;6.77;;;;;;;7.59;52.05;102719.97;4940297;28;20121;-82
2023/03/01 09:44:37;;;;;;;7.80;6.30;;;;;;;7.84;53.47;102714.91;4957377;28;20030;-82
2023/03/01 09:47:04;;;;;;;7.27;5.90;;;;;;;7.25;50.52;102717.75;4960517;28;20057;-82
2023/03/01 09:49:33;;;;;;;9.53;6.10;;;;;;;7.26;51.03;102716.78;4976334;28;20042;-89
2023/03/01 09:52:19;;;;;;;8.10;6.53;;;;;;;7.75;52.91;102713.09;4979998;28;20039;-88
2023/03/01 09:54:45;;;;;;;8.07;6.13;;;;;;;7.90;49.91;102706.25;4985523;28;20037;-89
2023/03/01 09:57:35;;;;;;;8.20;6.43;;;;;;;7.89;51.52;102703.69;4971018;28;20052;-88
2023/03/01 10:00:33;;;;;;;8.40;6.67;;;;;;;8.08;52.72;102700.91;4983551;28;20086;-89
2023/03/01 10:03:30;;;;;;;7.73;6.40;;;;;;;8.17;48.74;102707.22;4963053;28;20426;-89
2023/03/01 10:06:04;;;;;;;7.23;6.20;;;;;;;7.58;45.94;102710.16;4979956;28;20042;-89
2023/03/01 10:08:39;;;;;;;8.65;6.53;;;;;;;7.34;48.95;102704.41;4988493;28;20034;-89
2023/03/01 10:11:16;;;;;;;8.77;6.18;;;;;;;7.59;48.50;102690.28;4972686;28;20588;-82
2023/03/01 10:13:54;;;;;;;8.73;6.03;;;;;;;7.21;47.33;102685.84;4975476;28;20033;-82
2023/03/01 10:16:46;;;;;;;7.60;6.50;;;;;;;7.16;47.83;102680.88;4973660;28;20061;-82
2023/03/01 10:19:20;;;;;;;8.37;6.23;;;;;;;6.70;50.40;102685.16;4975518;28;20034;-82
2023/03/01 10:21:46;;;;;;;8.88;6.13;;;;;;;7.00;49.17;102673.38;4975982;28;20490;-82
2023/03/01 10:24:14;;;;;;;7.70;6.50;;;;;;;6.91;49.59;102680.47;4973520;28;20049;-82
2023/03/01 10:26:46;;;;;;;7.90;6.47;;;;;;;6.97;50.09;102668.28;4962146;28;20046;-82
2023/03/01 10:29:13;;;;;;;11.00;7.10;;;;;;;6.85;50.47;102656.78;4975782;28;20038;-82
2023/03/01 10:31:43;;;;;;;8.30;6.40;;;;;;;6.83;51.46;102653.41;4966441;28;20065;-83
2023/03/01 10:34:15;;;;;;;9.93;6.57;;;;;;;6.95;50.44;102656.81;4981684;28;20065;-83
2023/03/01 10:36:42;;;;;;;7.97;6.60;;;;;;;7.06;51.07;102655.78;4965764;28;20387;-83
2023/03/01 10:39:22;;;;;;;8.53;6.67;;;;;;;7.47;50.99;102659.09;4985464;28;20049;-91
2023/03/01 10:41:53;;;;;;;8.47;6.83;;;;;;;7.14;52.09;102653.22;4984140;28;20656;-91
2023/03/01 10:44:36;;;;;;;11.23;7.00;;;;;;;7.57;50.65;102659.91;4985687;28;20038;-91
2023/03/01 10:47:02;;;;;;;8.37;6.60;;;;;;;7.79;50.50;102649.75;4986271;28;20160;-92
2023/03/01 10:49:27;;;;;;;8.27;6.30;;;;;;;7.73;49.03;102653.88;4953488;28;20069;-91
2023/03/01 10:51:53;;;;;;;7.27;6.03;;;;;;;7.83;45.34;102648.44;4967857;28;20057;-91
2023/03/01 10:54:28;;;;;;;8.43;6.37;;;;;;;7.49;46.30;102651.69;4985859;28;20046;-91
2023/03/01 10:57:04;;;;;;;;;;;;;;;8.77;44.99;102650.00;4981602;28;20062;-91
2023/03/01 10:59:32;;;;;;;12.77;6.80;;;;;;;7.27;47.78;102650.22;4963987;28;19935;-83
2023/03/01 11:02:20;;;;;;;9.57;6.63;;;;;;;7.73;48.72;102636.84;4978314;28;20049;-82
2023/03/01 11:04:57;;;;;;;7.70;6.20;;;;;;;7.60;47.51;102640.75;4952632;28;21943;-83
2023/03/01 11:07:22;;;;;;;9.50;6.70;;;;;;;7.65;46.78;102634.06;4976283;28;20143;-83
2023/03/01 11:09:48;;;;;;;9.00;6.73;;;;;;;7.86;48.36;102641.91;4977910;28;20062;-83
2023/03/01 11:12:15;;;;;;;8.73;6.60;;;;;;;7.71;48.18;102641.53;4978119;28;20412;-83
2023/03/01 11:14:53;;;;;;;7.27;6.23;;;;;;;8.00;47.28;102640.56;4978370;28;20065;-83
2023/03/01 11:17:29;;;;;;;7.40;6.30;;;;;;;7.85;48.55;102641.06;4980054;28;20074;-83
2023/03/01 11:20:12;;;;;;;8.70;6.57;;;;;;;7.99;48.00;102650.50;4981182;28;20036;-83
2023/03/01 11:22:51;;;;;;;8.70;6.90;;;;;;;7.67;48.09;102645.53;4979630;28;20422;-83